createdAt,value
2019-02-22T00:00:03.748Z,88.9
2019-02-22T00:01:03.271Z,88.4
2019-02-22T00:02:03.861Z,88.4
2019-02-22T00:03:03.120Z,87.7
2019-02-22T00:04:03.294Z,87.7
2019-02-22T00:05:03.661Z,88.2
2019-02-22T00:06:03.305Z,87.5
2019-02-22T00:07:02.985Z,87.5
2019-02-22T00:08:03.300Z,86.5
2019-02-22T00:09:03.039Z,85.8
2019-02-22T00:10:03.152Z,84.9
2019-02-22T00:11:03.754Z,84.9
2019-02-22T00:12:03.802Z,85.6
2019-02-22T00:13:03.734Z,84.7
2019-02-22T00:14:03.300Z,83.7
2019-02-22T00:15:03.571Z,83.7
2019-02-22T00:16:02.953Z,81.9
2019-02-22T00:17:03.426Z,81.4
2019-02-22T00:18:02.926Z,81.4
2019-02-22T00:19:03.292Z,82.8
2019-02-22T00:20:02.967Z,82.8
2019-02-22T00:21:03.316Z,83
2019-02-22T00:22:02.967Z,83
2019-02-22T00:23:03.948Z,83.5
2019-02-22T00:24:02.953Z,84.9
2019-02-22T00:25:03.703Z,84.9
2019-02-22T00:26:03.106Z,84.9
2019-02-22T00:27:03.637Z,87
2019-02-22T00:28:03.144Z,87
2019-02-22T00:29:03.666Z,87.7
2019-02-22T00:30:03.293Z,87.7
2019-02-22T00:31:03.295Z,88.9
2019-02-22T00:32:02.985Z,88.6
2019-02-22T00:33:03.214Z,87.9
2019-02-22T00:34:03.747Z,88.6
2019-02-22T00:35:03.366Z,88.6
2019-02-22T00:36:03.291Z,90
2019-02-22T00:37:04.445Z,90.7
2019-02-22T00:38:03.363Z,89.8
2019-02-22T00:39:02.926Z,89.8
2019-02-22T00:40:03.323Z,89.3
2019-02-22T00:41:03.847Z,88.6
2019-02-22T00:42:03.142Z,88.6
2019-02-22T00:43:02.845Z,88.6
2019-02-22T00:44:03.495Z,87.7
2019-02-22T00:45:03.083Z,90.3
2019-02-22T00:46:03.300Z,90.3
2019-02-22T00:47:03.090Z,88.9
2019-02-22T00:48:03.426Z,90.5
2019-02-22T00:49:03.721Z,89.1
2019-02-22T00:50:03.188Z,89.1
2019-02-22T00:51:03.995Z,88.6
2019-02-22T00:52:03.290Z,88.6
2019-02-22T00:53:03.782Z,89.6
2019-02-22T00:54:03.285Z,89.6
2019-02-22T00:55:03.770Z,90.5
2019-02-22T00:56:03.266Z,90.5
2019-02-22T00:57:03.041Z,91.4
2019-02-22T00:58:03.657Z,90.5
2019-02-22T00:59:02.997Z,90.5
2019-02-22T01:00:04.399Z,91.2
2019-02-22T01:01:03.320Z,92.4
2019-02-22T01:02:03.030Z,93.5
2019-02-22T01:03:03.373Z,93.5
2019-02-22T01:04:02.793Z,94.9
2019-02-22T01:05:03.781Z,95.6
2019-02-22T01:06:02.899Z,96.1
2019-02-22T01:07:03.475Z,96.1
2019-02-22T01:08:03.339Z,97.7
2019-02-22T01:09:03.352Z,99.4
2019-02-22T01:10:03.061Z,99.4
2019-02-22T01:11:03.533Z,101
2019-02-22T01:12:03.128Z,101
2019-02-22T01:13:03.402Z,100.8
2019-02-22T01:14:02.860Z,100.5
2019-02-22T01:15:02.976Z,101
2019-02-22T01:16:02.814Z,101
2019-02-22T01:17:03.055Z,103.1
2019-02-22T01:18:03.758Z,103.1
2019-02-22T01:19:03.091Z,104.3
2019-02-22T01:20:03.839Z,104.3
2019-02-22T01:21:03.167Z,105
2019-02-22T01:22:03.445Z,104.3
2019-02-22T01:23:03.387Z,104.3
2019-02-22T01:24:03.213Z,104.3
2019-02-22T01:25:03.527Z,103.8
2019-02-22T01:26:03.166Z,103.8
2019-02-22T01:27:03.710Z,103.8
2019-02-22T01:28:03.230Z,104
2019-02-22T01:29:03.574Z,104.5
2019-02-22T01:30:03.381Z,104.7
2019-02-22T01:31:03.487Z,104.7
2019-02-22T01:32:03.370Z,103.8
2019-02-22T01:33:03.856Z,104
2019-02-22T01:34:03.432Z,104
2019-02-22T01:35:03.174Z,103.6
2019-02-22T01:36:03.607Z,103.1
2019-02-22T01:37:02.962Z,103.1
2019-02-22T01:38:03.346Z,103.1
2019-02-22T01:39:03.495Z,103.3
2019-02-22T01:40:03.765Z,103.6
2019-02-22T01:41:02.826Z,103.6
2019-02-22T01:42:03.561Z,103.6
2019-02-22T01:43:03.507Z,102.4
2019-02-22T01:44:03.384Z,102.4
2019-02-22T01:45:03.683Z,102.4
2019-02-22T01:46:03.231Z,103.6
2019-02-22T01:47:03.597Z,101.5
2019-02-22T01:48:03.447Z,103.8
2019-02-22T01:49:03.787Z,104
2019-02-22T01:50:03.298Z,104.7
2019-02-22T01:51:03.099Z,104.7
2019-02-22T01:52:03.279Z,104
2019-02-22T01:53:03.504Z,103.3
2019-02-22T01:54:02.686Z,103.6
2019-02-22T01:55:03.410Z,103.6
2019-02-22T01:56:03.923Z,104.7
2019-02-22T01:57:03.242Z,103.6
2019-02-22T01:58:03.132Z,103.6
2019-02-22T01:59:03.513Z,102.9
2019-02-22T02:00:03.194Z,103.8
2019-02-22T02:01:03.993Z,101.5
2019-02-22T02:02:03.332Z,101.5
2019-02-22T02:03:03.616Z,100.5
2019-02-22T02:04:02.969Z,100.8
2019-02-22T02:05:03.431Z,98.9
2019-02-22T02:06:03.455Z,98.9
2019-02-22T02:07:02.704Z,98.9
2019-02-22T02:08:03.245Z,98.2
2019-02-22T02:09:02.820Z,97.7
2019-02-22T02:10:03.185Z,97
2019-02-22T02:11:02.708Z,97.3
2019-02-22T02:12:02.995Z,97.5
2019-02-22T02:13:03.368Z,97.5
2019-02-22T02:14:03.070Z,98.2
2019-02-22T02:15:03.497Z,98.2
2019-02-22T02:16:03.755Z,96.6
2019-02-22T02:17:03.552Z,96.6
2019-02-22T02:18:03.124Z,93.8
2019-02-22T02:19:02.856Z,93.8
2019-02-22T02:20:03.295Z,93.5
2019-02-22T02:21:03.632Z,92.8
2019-02-22T02:22:02.978Z,92.8
2019-02-22T02:23:03.734Z,92.4
2019-02-22T02:24:03.221Z,93.5
2019-02-22T02:25:03.600Z,93.5
2019-02-22T02:26:02.984Z,93.5
2019-02-22T02:27:03.164Z,93.5
2019-02-22T02:28:03.510Z,93.3
2019-02-22T02:29:03.267Z,93.8
2019-02-22T02:30:03.826Z,93.8
2019-02-22T02:31:03.359Z,93.3
2019-02-22T02:32:02.858Z,94.2
2019-02-22T02:33:03.212Z,94.2
2019-02-22T02:34:03.014Z,95.4
2019-02-22T02:35:03.290Z,94.5
2019-02-22T02:36:03.657Z,95.9
2019-02-22T02:37:03.035Z,95.4
2019-02-22T02:38:03.849Z,94.9
2019-02-22T02:39:03.021Z,94.9
2019-02-22T02:40:04.348Z,94.9
2019-02-22T02:41:11.871Z,94.9
2019-02-22T02:42:03.488Z,96.3
2019-02-22T02:43:03.293Z,96.3
2019-02-22T02:44:03.599Z,93.5
2019-02-22T02:45:03.039Z,92.4
2019-02-22T02:46:03.837Z,92.4
2019-02-22T02:47:02.980Z,91.9
2019-02-22T02:48:03.159Z,93.3
2019-02-22T02:49:03.728Z,92.8
2019-02-22T02:50:03.656Z,92.8
2019-02-22T02:51:02.749Z,93.3
2019-02-22T02:52:03.292Z,93.5
2019-02-22T02:53:03.949Z,93.5
2019-02-22T02:54:03.016Z,93.5
2019-02-22T02:55:03.689Z,93.5
2019-02-22T02:56:03.217Z,92.6
2019-02-22T02:57:03.870Z,92.6
2019-02-22T02:58:03.442Z,94.2
2019-02-22T02:59:03.711Z,94.2
2019-02-22T03:00:03.348Z,95.4
2019-02-22T03:01:03.820Z,95.4
2019-02-22T03:02:02.899Z,95.9
2019-02-22T03:03:03.296Z,95.9
2019-02-22T03:04:02.926Z,97.3
2019-02-22T03:05:03.639Z,97.3
2019-02-22T03:06:03.325Z,98.7
2019-02-22T03:07:03.835Z,98.7
2019-02-22T03:08:03.172Z,98.2
2019-02-22T03:09:03.844Z,98.7
2019-02-22T03:10:03.231Z,97.7
2019-02-22T03:11:03.787Z,98.7
2019-02-22T03:12:02.853Z,98.9
2019-02-22T03:13:03.492Z,99.8
2019-02-22T03:14:03.240Z,99.8
2019-02-22T03:15:03.640Z,100.3
2019-02-22T03:16:03.506Z,100.5
2019-02-22T03:17:02.861Z,99.8
2019-02-22T03:18:03.438Z,99.8
2019-02-22T03:19:03.790Z,99.1
2019-02-22T03:20:03.553Z,99.4
2019-02-22T03:21:03.037Z,99.4
2019-02-22T03:22:03.773Z,100.5
2019-02-22T03:23:02.943Z,100.1
2019-02-22T03:24:03.739Z,100.5
2019-02-22T03:25:03.331Z,100.5
2019-02-22T03:26:03.362Z,99.8
2019-02-22T03:27:03.530Z,99.4
2019-02-22T03:28:02.812Z,98.7
2019-02-22T03:29:02.897Z,98.7
2019-02-22T03:30:03.715Z,95.6
2019-02-22T03:31:02.972Z,95.6
2019-02-22T03:32:03.787Z,96.3
2019-02-22T03:33:03.266Z,96.3
2019-02-22T03:34:03.940Z,96.1
2019-02-22T03:35:03.586Z,96.8
2019-02-22T03:36:02.960Z,95.6
2019-02-22T03:37:03.423Z,95.4
2019-02-22T03:38:02.789Z,95.4
2019-02-22T03:39:03.537Z,94.5
2019-02-22T03:40:02.990Z,94.7
2019-02-22T03:41:03.319Z,94.9
2019-02-22T03:42:03.670Z,94.9
2019-02-22T03:43:03.096Z,92.4
2019-02-22T03:44:03.555Z,92.6
2019-02-22T03:45:02.854Z,92.6
2019-02-22T03:46:03.006Z,92.6
2019-02-22T03:47:03.129Z,94.2
2019-02-22T03:48:03.535Z,91.2
2019-02-22T03:49:03.107Z,91.2
2019-02-22T03:50:03.609Z,90.3
2019-02-22T03:51:03.736Z,89.8
2019-02-22T03:52:03.570Z,89.1
2019-02-22T03:53:03.188Z,89.1
2019-02-22T03:54:03.339Z,89.3
2019-02-22T03:55:02.971Z,87.7
2019-02-22T03:56:03.751Z,87.7
2019-02-22T03:57:03.047Z,88.9
2019-02-22T03:58:03.761Z,87.9
2019-02-22T03:59:03.059Z,87.7
2019-02-22T04:00:03.734Z,88.9
2019-02-22T04:01:02.773Z,88.9
2019-02-22T04:02:03.542Z,88.9
2019-02-22T04:03:03.675Z,87.9
2019-02-22T04:04:03.344Z,87.9
2019-02-22T04:05:03.490Z,87.7
2019-02-22T04:06:03.482Z,87.7
2019-02-22T04:07:03.515Z,87.2
2019-02-22T04:08:02.911Z,87
2019-02-22T04:09:03.144Z,87
2019-02-22T04:10:02.808Z,86.3
2019-02-22T04:11:03.124Z,86.8
2019-02-22T04:12:03.804Z,85.4
2019-02-22T04:13:03.052Z,85.4
2019-02-22T04:14:03.852Z,84.7
2019-02-22T04:15:02.977Z,85.1
2019-02-22T04:16:03.473Z,84.2
2019-02-22T04:17:02.909Z,84.2
2019-02-22T04:18:03.711Z,85.6
2019-02-22T04:19:03.566Z,84
2019-02-22T04:20:03.156Z,84
2019-02-22T04:21:03.417Z,83.5
2019-02-22T04:22:03.156Z,81.4
2019-02-22T04:23:03.799Z,81.4
2019-02-22T04:24:03.034Z,81.2
2019-02-22T04:25:03.953Z,81.4
2019-02-22T04:26:03.276Z,82.8
2019-02-22T04:27:03.729Z,83.5
2019-02-22T04:28:03.088Z,83.5
2019-02-22T04:29:03.465Z,85.8
2019-02-22T04:30:03.001Z,85.8
2019-02-22T04:31:03.468Z,87
2019-02-22T04:32:03.092Z,86.3
2019-02-22T04:33:03.599Z,86.3
2019-02-22T04:34:03.654Z,85.8
2019-02-22T04:35:03.523Z,84.7
2019-02-22T04:36:02.989Z,83.3
2019-02-22T04:37:03.676Z,83.3
2019-02-22T04:38:03.491Z,83.5
2019-02-22T04:39:03.723Z,82.8
2019-02-22T04:40:03.418Z,81.9
2019-02-22T04:41:03.936Z,81.9
2019-02-22T04:42:03.047Z,80.5
2019-02-22T04:43:03.769Z,81.2
2019-02-22T04:44:03.137Z,81.2
2019-02-22T04:45:03.764Z,81.2
2019-02-22T04:46:03.171Z,82.8
2019-02-22T04:47:03.378Z,82.8
2019-02-22T04:48:02.991Z,83
2019-02-22T04:49:03.664Z,84.7
2019-02-22T04:50:03.086Z,84.2
2019-02-22T04:51:03.412Z,87
2019-02-22T04:52:02.683Z,85.6
2019-02-22T04:53:03.251Z,87.7
2019-02-22T04:54:03.819Z,87.7
2019-02-22T04:55:03.353Z,87.9
2019-02-22T04:56:02.827Z,87.9
2019-02-22T04:57:03.216Z,89.3
2019-02-22T04:58:03.577Z,89.3
2019-02-22T04:59:04.050Z,88.2
2019-02-22T05:00:03.208Z,89.3
2019-02-22T05:01:02.925Z,89.3
2019-02-22T05:02:03.534Z,88.2
2019-02-22T05:03:03.785Z,86.8
2019-02-22T05:04:03.295Z,88.2
2019-02-22T05:05:03.733Z,88.2
2019-02-22T05:06:03.177Z,85.4
2019-02-22T05:07:03.730Z,84.7
2019-02-22T05:08:03.360Z,86.3
2019-02-22T05:09:03.910Z,86.3
2019-02-22T05:10:03.196Z,87.5
2019-02-22T05:11:03.614Z,89.3
2019-02-22T05:12:11.592Z,89.3
2019-02-22T05:13:03.406Z,89.3
2019-02-22T05:14:03.601Z,88.9
2019-02-22T05:15:13.320Z,89.6
2019-02-22T05:16:02.855Z,89.6
2019-02-22T05:17:03.516Z,91
2019-02-22T05:18:03.866Z,91
2019-02-22T05:19:03.525Z,92.4
2019-02-22T05:20:03.764Z,92.4
2019-02-22T05:21:03.252Z,93.5
2019-02-22T05:22:03.403Z,95.6
2019-02-22T05:23:07.902Z,95.4
2019-02-22T05:24:03.650Z,97.5
2019-02-22T05:25:03.369Z,97.5
2019-02-22T05:26:03.858Z,97.3
2019-02-22T05:27:03.622Z,97.3
2019-02-22T05:28:02.985Z,97.7
2019-02-22T05:29:03.362Z,97.7
2019-02-22T05:30:02.881Z,97
2019-02-22T05:31:03.252Z,98
2019-02-22T05:32:02.646Z,98
2019-02-22T05:33:03.616Z,98.9
2019-02-22T05:34:03.021Z,97.7
2019-02-22T05:35:03.746Z,100.3
2019-02-22T05:36:03.104Z,100.3
2019-02-22T05:37:03.342Z,101.2
2019-02-22T05:38:02.981Z,101.9
2019-02-22T05:39:03.411Z,102.4
2019-02-22T05:40:03.383Z,102.4
2019-02-22T05:41:03.409Z,102.2
2019-02-22T05:42:02.961Z,103.6
2019-02-22T05:43:03.619Z,103.6
2019-02-22T05:44:03.263Z,105
2019-02-22T05:45:03.599Z,103.1
2019-02-22T05:46:03.401Z,104.3
2019-02-22T05:47:03.473Z,104.3
2019-02-22T05:48:03.160Z,102.4
2019-02-22T05:49:03.358Z,102.4
2019-02-22T05:50:03.454Z,101
2019-02-22T05:51:03.564Z,101
2019-02-22T05:52:02.929Z,100.5
2019-02-22T05:53:04.109Z,100.5
2019-02-22T05:54:03.457Z,101
2019-02-22T05:55:03.157Z,100.3
2019-02-22T05:56:03.696Z,100.3
2019-02-22T05:57:03.155Z,100.1
2019-02-22T05:58:03.713Z,98.4
2019-02-22T05:59:03.015Z,98
2019-02-22T06:00:03.634Z,98
2019-02-22T06:01:02.668Z,98.9
2019-02-22T06:02:03.194Z,98.9
2019-02-22T06:03:03.107Z,100.3
2019-02-22T06:04:03.569Z,100.3
2019-02-22T06:05:02.849Z,101.9
2019-02-22T06:06:03.301Z,104.5
2019-02-22T06:07:03.114Z,104.5
2019-02-22T06:08:03.365Z,104.5
2019-02-22T06:09:03.771Z,105.2
2019-02-22T06:10:03.033Z,102.6
2019-02-22T06:11:02.882Z,102.6
2019-02-22T06:12:03.640Z,102.6
2019-02-22T06:13:02.899Z,101.5
2019-02-22T06:14:03.615Z,101.5
2019-02-22T06:15:03.299Z,101.9
2019-02-22T06:16:03.541Z,102.2
2019-02-22T06:17:15.232Z,101.7
2019-02-22T06:18:04.145Z,102.6
2019-02-22T06:19:02.948Z,101.9
2019-02-22T06:20:03.816Z,101.2
2019-02-22T06:21:03.644Z,100.1
2019-02-22T06:22:03.100Z,100.1
2019-02-22T06:23:02.909Z,98.2
2019-02-22T06:24:03.856Z,98.2
2019-02-22T06:25:03.110Z,96.1
2019-02-22T06:26:03.584Z,96.1
2019-02-22T06:27:03.750Z,96.3
2019-02-22T06:28:03.659Z,96.8
2019-02-22T06:29:02.814Z,96.1
2019-02-22T06:30:04.108Z,95.2
2019-02-22T06:31:03.324Z,95.2
2019-02-22T06:32:02.704Z,94
2019-02-22T06:33:03.397Z,94
2019-02-22T06:34:02.960Z,93.8
2019-02-22T06:35:03.459Z,93.8
2019-02-22T06:36:03.102Z,92.8
2019-02-22T06:37:03.464Z,92.1
2019-02-22T06:38:03.072Z,92.1
2019-02-22T06:39:02.974Z,93.3
2019-02-22T06:40:03.805Z,91.9
2019-02-22T06:41:03.043Z,92.1
2019-02-22T06:42:03.740Z,92.1
2019-02-22T06:43:03.700Z,93.5
2019-02-22T06:44:03.067Z,91.7
2019-02-22T06:45:03.044Z,92.4
2019-02-22T06:46:03.132Z,92.4
2019-02-22T06:47:03.108Z,92.8
2019-02-22T06:48:03.273Z,94.2
2019-02-22T06:49:03.209Z,94.2
2019-02-22T06:50:03.055Z,95.4
2019-02-22T06:51:02.934Z,94.5
2019-02-22T06:52:03.392Z,94.9
2019-02-22T06:53:02.970Z,94.5
2019-02-22T06:54:03.606Z,93.8
2019-02-22T06:55:03.329Z,93.8
2019-02-22T06:56:03.372Z,95.4
2019-02-22T06:57:02.937Z,95.4
2019-02-22T06:58:03.500Z,95.4
2019-02-22T06:59:03.691Z,93.1
2019-02-22T07:00:03.203Z,94.2
2019-02-22T07:01:03.484Z,93.3
2019-02-22T07:02:03.746Z,93.3
2019-02-22T07:03:03.298Z,92.6
2019-02-22T07:04:03.919Z,92.6
2019-02-22T07:05:03.062Z,91.9
2019-02-22T07:06:05.821Z,90.5
2019-02-22T07:07:03.274Z,87.9
2019-02-22T07:08:03.265Z,88.2
2019-02-22T07:09:03.479Z,88.2
2019-02-22T07:10:02.905Z,88.4
2019-02-22T07:11:03.551Z,88.6
2019-02-22T07:12:02.841Z,88.6
2019-02-22T07:13:03.286Z,88.6
2019-02-22T07:14:02.986Z,90.5
2019-02-22T07:15:02.993Z,90.3
2019-02-22T07:16:03.433Z,88.4
2019-02-22T07:17:03.478Z,88.4
2019-02-22T07:18:03.006Z,89.3
2019-02-22T07:19:03.985Z,88.9
2019-02-22T07:20:03.021Z,88.9
2019-02-22T07:21:03.483Z,88.9
2019-02-22T07:22:02.868Z,88.9
2019-02-22T07:23:03.427Z,90
2019-02-22T07:24:03.999Z,89.8
2019-02-22T07:25:02.878Z,91
2019-02-22T07:26:03.815Z,91
2019-02-22T07:27:03.308Z,90.3
2019-02-22T07:28:03.660Z,90.3
2019-02-22T07:29:03.379Z,89.1
2019-02-22T07:30:03.588Z,89.1
2019-02-22T07:31:02.927Z,87.9
2019-02-22T07:32:39.463Z,87.7
2019-02-22T07:33:02.911Z,87.7
2019-02-22T07:34:03.047Z,88.9
2019-02-22T07:35:03.368Z,86.8
2019-02-22T07:36:03.486Z,87.5
2019-02-22T07:37:03.302Z,87.5
2019-02-22T07:38:03.639Z,89.8
2019-02-22T07:39:03.387Z,88.6
2019-02-22T07:40:03.707Z,88.2
2019-02-22T07:41:03.036Z,88.2
2019-02-22T07:42:03.100Z,88.6
2019-02-22T07:43:08.619Z,87.7
2019-02-22T07:44:03.278Z,87.7
2019-02-22T07:45:03.119Z,89.1
2019-02-22T07:46:03.520Z,87.2
2019-02-22T07:47:03.717Z,87.2
2019-02-22T07:48:03.437Z,87.2
2019-02-22T07:49:02.788Z,85.6
2019-02-22T07:50:03.461Z,85.6
2019-02-22T07:51:03.017Z,85.1
2019-02-22T07:52:03.623Z,85.4
2019-02-22T07:53:03.044Z,87.2
2019-02-22T07:54:03.459Z,87
2019-02-22T07:55:03.099Z,86.3
2019-02-22T07:56:03.323Z,86.8
2019-02-22T07:57:03.025Z,86.5
2019-02-22T07:58:03.157Z,87.2
2019-02-22T07:59:03.827Z,87
2019-02-22T08:00:03.031Z,88.4
2019-02-22T08:01:03.836Z,88.4
2019-02-22T08:02:03.502Z,90.5
2019-02-22T08:03:03.114Z,92.8
2019-02-22T08:04:03.480Z,92.8
2019-02-22T08:05:02.799Z,93.3
2019-02-22T08:06:03.697Z,94.5
2019-02-22T08:07:03.020Z,94.5
2019-02-22T08:08:03.587Z,94.5
2019-02-22T08:09:03.292Z,94
2019-02-22T08:10:03.626Z,94
2019-02-22T08:11:03.175Z,93.5
2019-02-22T08:12:03.748Z,93.5
2019-02-22T08:13:02.642Z,93.5
2019-02-22T08:14:03.350Z,92.8
2019-02-22T08:15:03.826Z,92.8
2019-02-22T08:16:03.073Z,94.5
2019-02-22T08:17:03.756Z,94.5
2019-02-22T08:18:03.554Z,95.2
2019-02-22T08:19:03.433Z,95.2
2019-02-22T08:20:03.713Z,93.3
2019-02-22T08:21:03.387Z,93.3
2019-02-22T08:22:03.902Z,92.4
2019-02-22T08:23:03.041Z,92.4
2019-02-22T08:24:03.879Z,92.1
2019-02-22T08:25:02.953Z,91.9
2019-02-22T08:26:03.450Z,92.6
2019-02-22T08:27:03.717Z,91.7
2019-02-22T08:28:03.694Z,92.6
2019-02-22T08:29:03.512Z,93.1
2019-02-22T08:30:03.721Z,95.4
2019-02-22T08:31:03.182Z,97.3
2019-02-22T08:32:03.907Z,97.3
2019-02-22T08:33:03.348Z,96.8
2019-02-22T08:34:03.448Z,96.8
2019-02-22T08:35:03.174Z,95.9
2019-02-22T08:36:03.224Z,98
2019-02-22T08:37:03.548Z,97.7
2019-02-22T08:38:03.035Z,98
2019-02-22T08:39:03.615Z,98
2019-02-22T08:40:03.137Z,98.7
2019-02-22T08:41:03.756Z,99.4
2019-02-22T08:42:03.278Z,99.1
2019-02-22T08:43:03.783Z,99.1
2019-02-22T08:44:03.295Z,100.5
2019-02-22T08:45:03.362Z,99.1
2019-02-22T08:46:03.791Z,99.1
2019-02-22T08:47:03.693Z,99.4
2019-02-22T08:48:03.091Z,99.1
2019-02-22T08:49:03.160Z,101
2019-02-22T08:50:03.280Z,101
2019-02-22T08:51:03.321Z,101.7
2019-02-22T08:52:03.336Z,103.1
2019-02-22T08:53:03.925Z,101.9
2019-02-22T08:54:03.674Z,101.9
2019-02-22T08:55:03.788Z,101.9
2019-02-22T08:56:03.469Z,101.9
2019-02-22T08:57:03.751Z,101.5
2019-02-22T08:58:03.361Z,102.9
2019-02-22T08:59:03.042Z,102.4
2019-02-22T09:00:03.807Z,101.2
2019-02-22T09:01:03.005Z,102.2
2019-02-22T09:02:03.582Z,99.1
2019-02-22T09:03:03.101Z,99.1
2019-02-22T09:04:03.404Z,98.2
2019-02-22T09:05:02.977Z,98.2
2019-02-22T09:06:03.162Z,98
2019-02-22T09:07:03.665Z,98
2019-02-22T09:08:03.021Z,98.2
2019-02-22T09:09:03.366Z,98.2
2019-02-22T09:10:03.592Z,98.2
2019-02-22T09:11:03.266Z,97.7
2019-02-22T09:12:03.706Z,97
2019-02-22T09:13:03.059Z,97
2019-02-22T09:14:03.563Z,97
2019-02-22T09:15:03.310Z,98.2
2019-02-22T09:16:03.702Z,98.2
2019-02-22T09:17:03.232Z,98.2
2019-02-22T09:18:03.214Z,99.4
2019-02-22T09:19:03.628Z,100.8
2019-02-22T09:20:03.051Z,101.5
2019-02-22T09:21:03.212Z,101.5
2019-02-22T09:22:03.683Z,102.6
2019-02-22T09:23:03.065Z,101.9
2019-02-22T09:24:03.804Z,102.9
2019-02-22T09:25:03.728Z,102.6
2019-02-22T09:26:03.710Z,102.9
2019-02-22T09:27:03.489Z,102.9
2019-02-22T09:28:03.560Z,100.5
2019-02-22T09:29:03.419Z,100.5
2019-02-22T09:30:02.887Z,99.6
2019-02-22T09:31:03.245Z,99.6
2019-02-22T09:32:03.806Z,99.1
2019-02-22T09:33:03.265Z,99.4
2019-02-22T09:34:03.378Z,99.4
2019-02-22T09:35:03.130Z,100.5
2019-02-22T09:36:03.575Z,100.5
2019-02-22T09:37:03.691Z,99.6
2019-02-22T09:38:03.700Z,99.6
2019-02-22T09:39:02.880Z,98.9
2019-02-22T09:40:03.289Z,98.4
2019-02-22T09:41:03.175Z,97
2019-02-22T09:42:03.434Z,97
2019-02-22T09:43:03.346Z,96.8
2019-02-22T09:44:03.469Z,94.9
2019-02-22T09:45:03.253Z,94.9
2019-02-22T09:46:03.502Z,94.2
2019-02-22T09:47:02.751Z,93.5
2019-02-22T09:48:03.163Z,93.3
2019-02-22T09:49:02.800Z,93.3
2019-02-22T09:50:03.790Z,91.7
2019-02-22T09:51:03.823Z,91.2
2019-02-22T09:52:02.907Z,91.2
2019-02-22T09:53:03.613Z,91.4
2019-02-22T09:54:02.979Z,92.1
2019-02-22T09:55:03.865Z,93.5
2019-02-22T09:56:03.260Z,93.1
2019-02-22T09:57:02.826Z,93.8
2019-02-22T09:58:03.475Z,93.8
2019-02-22T09:59:03.232Z,93.8
2019-02-22T10:00:03.597Z,93.8
2019-02-22T10:01:02.911Z,94.5
2019-02-22T10:02:03.457Z,94.2
2019-02-22T10:03:03.389Z,93.3
2019-02-22T10:04:03.298Z,92.6
2019-02-22T10:05:03.275Z,92.6
2019-02-22T10:06:03.200Z,92.1
2019-02-22T10:07:03.745Z,91.9
2019-02-22T10:08:03.176Z,93.1
2019-02-22T10:09:04.293Z,93.1
2019-02-22T10:10:03.334Z,94.9
2019-02-22T10:11:03.425Z,94.5
2019-02-22T10:12:03.272Z,94.5
2019-02-22T10:13:03.497Z,94.5
2019-02-22T10:14:07.360Z,94.9
2019-02-22T10:15:03.616Z,93.3
2019-02-22T10:16:03.195Z,93.3
2019-02-22T10:17:04.360Z,91.7
2019-02-22T10:18:02.606Z,90.7
2019-02-22T10:19:03.273Z,90.7
2019-02-22T10:20:03.878Z,90.7
2019-02-22T10:21:03.607Z,90.7
2019-02-22T10:22:03.639Z,90.3
2019-02-22T10:23:03.222Z,89.8
2019-02-22T10:24:03.463Z,89.8
2019-02-22T10:25:03.139Z,88.2
2019-02-22T10:26:03.357Z,88.2
2019-02-22T10:27:03.743Z,88.6
2019-02-22T10:28:03.457Z,88.9
2019-02-22T10:29:03.828Z,90.5
2019-02-22T10:30:03.345Z,89.8
2019-02-22T10:31:02.895Z,89.8
2019-02-22T10:32:03.153Z,88.6
2019-02-22T10:33:03.642Z,88.6
2019-02-22T10:34:03.039Z,86.1
2019-02-22T10:35:03.565Z,86.1
2019-02-22T10:36:03.530Z,85.8
2019-02-22T10:37:03.135Z,84.2
2019-02-22T10:38:03.867Z,84.9
2019-02-22T10:39:03.269Z,85.4
2019-02-22T10:40:03.322Z,85.4
2019-02-22T10:41:03.332Z,85.8
2019-02-22T10:42:03.509Z,87.5
2019-02-22T10:43:03.166Z,88.6
2019-02-22T10:44:03.651Z,88.6
2019-02-22T10:45:02.828Z,90.3
2019-02-22T10:46:03.603Z,91.4
2019-02-22T10:47:03.031Z,91.4
2019-02-22T10:48:03.655Z,92.4
2019-02-22T10:49:03.365Z,92.1
2019-02-22T10:50:02.825Z,92.6
2019-02-22T10:51:03.061Z,92.6
2019-02-22T10:52:02.972Z,92.4
2019-02-22T10:53:03.450Z,92.1
2019-02-22T10:54:02.807Z,91.9
2019-02-22T10:55:03.849Z,91.9
2019-02-22T10:56:03.432Z,91.7
2019-02-22T10:57:03.325Z,90.7
2019-02-22T10:58:03.622Z,91
2019-02-22T10:59:03.162Z,90.3
2019-02-22T11:00:03.875Z,91.4
2019-02-22T11:01:03.236Z,91.7
2019-02-22T11:02:03.424Z,92.1
2019-02-22T11:03:02.960Z,92.1
2019-02-22T11:04:03.312Z,92.1
2019-02-22T11:05:04.049Z,92.1
2019-02-22T11:06:03.374Z,92.1
2019-02-22T11:07:03.766Z,91.7
2019-02-22T11:08:03.229Z,91.7
2019-02-22T11:09:03.947Z,91.7
2019-02-22T11:10:03.243Z,90.3
2019-02-22T11:11:03.795Z,90.3
2019-02-22T11:12:03.479Z,91
2019-02-22T11:13:03.099Z,91.4
2019-02-22T11:14:03.499Z,91.4
2019-02-22T11:15:03.287Z,91.4
2019-02-22T11:16:03.658Z,93.1
2019-02-22T11:17:03.406Z,94
2019-02-22T11:18:03.842Z,94
2019-02-22T11:19:02.967Z,94
2019-02-22T11:20:03.991Z,94.5
2019-02-22T11:21:02.788Z,94.2
2019-02-22T11:22:03.528Z,94.2
2019-02-22T11:23:03.916Z,94.2
2019-02-22T11:24:03.182Z,94.5
2019-02-22T11:25:03.680Z,94.5
2019-02-22T11:26:03.082Z,95.4
2019-02-22T11:27:03.624Z,94.5
2019-02-22T11:28:03.313Z,94.5
2019-02-22T11:29:03.690Z,93.5
2019-02-22T11:30:03.203Z,94.9
2019-02-22T11:31:03.383Z,94.5
2019-02-22T11:32:03.086Z,95.6
2019-02-22T11:33:02.831Z,95.9
2019-02-22T11:34:03.190Z,97.5
2019-02-22T11:35:03.822Z,97.5
2019-02-22T11:36:03.919Z,98.7
2019-02-22T11:37:03.341Z,98.7
2019-02-22T11:38:03.586Z,99.4
2019-02-22T11:39:03.648Z,99.4
2019-02-22T11:40:03.490Z,98.4
2019-02-22T11:41:02.991Z,98.7
2019-02-22T11:42:03.535Z,98.7
2019-02-22T11:43:03.175Z,98.2
2019-02-22T11:44:03.447Z,97.5
2019-02-22T11:45:03.067Z,97.7
2019-02-22T11:46:03.762Z,97.7
2019-02-22T11:47:03.079Z,97.7
2019-02-22T11:48:09.829Z,97
2019-02-22T11:49:03.088Z,98.2
2019-02-22T11:50:02.961Z,98.2
2019-02-22T11:51:03.437Z,98.9
2019-02-22T11:52:03.858Z,100.3
2019-02-22T11:53:03.526Z,100.3
2019-02-22T11:54:03.663Z,100.8
2019-02-22T11:55:03.306Z,100.1
2019-02-22T11:56:03.681Z,101
2019-02-22T11:57:03.267Z,100.8
2019-02-22T11:58:02.875Z,101
2019-02-22T11:59:03.450Z,101
2019-02-22T12:00:03.611Z,98.9
2019-02-22T12:01:03.032Z,98.9
2019-02-22T12:02:03.899Z,98.7
2019-02-22T12:03:25.444Z,98.7
2019-02-22T12:04:03.468Z,98.9
2019-02-22T12:05:03.988Z,98.7
2019-02-22T12:06:03.679Z,98.7
2019-02-22T12:07:03.038Z,98.4
2019-02-22T12:08:03.887Z,99.8
2019-02-22T12:09:03.276Z,99.1
2019-02-22T12:10:03.378Z,99.1
2019-02-22T12:11:03.733Z,97.7
2019-02-22T12:12:03.619Z,98
2019-02-22T12:13:03.137Z,97.5
2019-02-22T12:14:03.657Z,97.5
2019-02-22T12:15:02.930Z,97.3
2019-02-22T12:16:03.618Z,96.3
2019-02-22T12:17:03.081Z,96.3
2019-02-22T12:18:03.450Z,94.9
2019-02-22T12:19:02.651Z,94.9
2019-02-22T12:20:03.312Z,93.3
2019-02-22T12:21:02.839Z,93.3
2019-02-22T12:22:03.271Z,93.3
2019-02-22T12:23:03.128Z,92.1
2019-02-22T12:24:03.064Z,92.1
2019-02-22T12:25:03.599Z,91.9
2019-02-22T12:26:03.504Z,91.9
2019-02-22T12:27:03.130Z,91.4
2019-02-22T12:28:03.832Z,90.7
2019-02-22T12:29:03.594Z,91
2019-02-22T12:30:03.147Z,90.5
2019-02-22T12:31:03.766Z,90.7
2019-02-22T12:32:03.314Z,90.7
2019-02-22T12:33:03.670Z,90
2019-02-22T12:34:02.836Z,90
2019-02-22T12:35:03.842Z,90
2019-02-22T12:36:03.386Z,89.3
2019-02-22T12:37:03.634Z,88.6
2019-02-22T12:38:02.934Z,88.6
2019-02-22T12:39:03.297Z,88.9
2019-02-22T12:40:03.882Z,89.1
2019-02-22T12:41:03.195Z,89.1
2019-02-22T12:42:03.689Z,89.6
2019-02-22T12:43:02.985Z,89.6
2019-02-22T12:44:03.771Z,90.3
2019-02-22T12:45:03.884Z,90.3
2019-02-22T12:46:03.471Z,89.1
2019-02-22T12:47:03.798Z,89.1
2019-02-22T12:48:03.383Z,89.3
2019-02-22T12:49:03.815Z,89.3
2019-02-22T12:50:03.312Z,87.9
2019-02-22T12:51:03.874Z,87.9
2019-02-22T12:52:02.805Z,88.6
2019-02-22T12:53:03.609Z,87.7
2019-02-22T12:54:03.780Z,87.7
2019-02-22T12:55:03.525Z,87.7
2019-02-22T12:56:03.718Z,87.7
2019-02-22T12:57:03.005Z,86.8
2019-02-22T12:58:03.861Z,86.8
2019-02-22T12:59:03.868Z,85.8
2019-02-22T13:00:03.434Z,86.3
2019-02-22T13:01:03.505Z,87.9
2019-02-22T13:02:03.185Z,87.9
2019-02-22T13:03:03.259Z,87.2
2019-02-22T13:04:03.444Z,87.5
2019-02-22T13:05:03.336Z,87.5
2019-02-22T13:06:03.790Z,87
2019-02-22T13:07:03.074Z,88.9
2019-02-22T13:08:03.343Z,86.8
2019-02-22T13:09:03.134Z,86.8
2019-02-22T13:10:03.426Z,86.8
2019-02-22T13:11:02.898Z,87.9
2019-02-22T13:12:17.619Z,86.3
2019-02-22T13:13:03.153Z,86.3
2019-02-22T13:14:03.703Z,88.2
2019-02-22T13:15:14.987Z,85.1
2019-02-22T13:16:03.471Z,88.2
2019-02-22T13:17:03.033Z,88.2
2019-02-22T13:18:03.537Z,89.3